createdAt,value
2018-02-14T00:02:16.847Z,1.10
2018-02-14T00:04:45.058Z,1.10
2018-02-14T00:07:12.508Z,1.10
2018-02-14T00:09:40.089Z,1.10
2018-02-14T00:12:07.525Z,1.10
2018-02-14T00:14:34.988Z,1.00
2018-02-14T00:17:02.454Z,1.00
2018-02-14T00:19:29.885Z,1.00
2018-02-14T00:21:57.366Z,1.00
2018-02-14T00:24:24.809Z,1.00
2018-02-14T00:26:52.282Z,1.00
2018-02-14T00:29:19.736Z,1.10
2018-02-14T00:31:47.188Z,1.10
2018-02-14T00:34:14.637Z,1.10
2018-02-14T00:36:42.108Z,1.20
2018-02-14T00:39:09.543Z,1.20
2018-02-14T00:41:37.051Z,1.30
2018-02-14T00:44:04.472Z,1.20
2018-02-14T00:46:31.914Z,1.20
2018-02-14T00:48:59.357Z,1.20
2018-02-14T00:51:26.935Z,1.20
2018-02-14T00:53:54.517Z,1.20
2018-02-14T00:56:21.978Z,1.10
2018-02-14T00:58:49.434Z,1.10
2018-02-14T01:01:16.873Z,1.10
2018-02-14T01:03:44.437Z,1.10
2018-02-14T01:06:11.875Z,1.10
2018-02-14T01:08:39.317Z,1.10
2018-02-14T01:11:06.820Z,1.10
2018-02-14T01:13:34.262Z,1.00
2018-02-14T01:16:01.825Z,1.00
2018-02-14T01:18:29.265Z,0.90
2018-02-14T01:20:56.725Z,0.90
2018-02-14T01:23:24.169Z,0.90
2018-02-14T01:25:51.613Z,0.90
2018-02-14T01:28:19.101Z,0.80
2018-02-14T01:30:46.533Z,0.80
2018-02-14T01:33:13.984Z,0.70
2018-02-14T01:35:41.476Z,0.60
2018-02-14T01:38:08.909Z,0.60
2018-02-14T01:40:36.351Z,0.60
2018-02-14T01:43:03.943Z,0.60
2018-02-14T01:45:31.379Z,0.60
2018-02-14T01:47:58.838Z,0.70
2018-02-14T01:50:38.312Z,0.70
2018-02-14T01:53:05.766Z,0.60
2018-02-14T01:55:33.220Z,0.60
2018-02-14T01:58:00.665Z,0.60
2018-02-14T02:00:28.126Z,0.50
2018-02-14T02:02:55.573Z,0.50
2018-02-14T02:05:23.020Z,0.40
2018-02-14T02:07:50.437Z,0.40
2018-02-14T02:10:18.661Z,0.30
2018-02-14T02:12:46.135Z,0.20
2018-02-14T02:15:13.577Z,0.30
2018-02-14T02:17:41.049Z,0.30
2018-02-14T02:20:08.478Z,0.30
2018-02-14T02:22:35.905Z,0.30
2018-02-14T02:25:03.338Z,0.40
2018-02-14T02:27:31.530Z,0.40
2018-02-14T02:29:58.965Z,0.40
2018-02-14T02:32:27.162Z,0.50
2018-02-14T02:34:54.606Z,0.40
2018-02-14T02:37:22.841Z,0.50
2018-02-14T02:42:48.881Z,0.50
2018-02-14T02:45:16.430Z,0.50
2018-02-14T02:47:43.861Z,0.50
2018-02-14T02:50:11.346Z,0.50
2018-02-14T02:52:38.813Z,0.50
2018-02-14T02:55:06.269Z,0.40
2018-02-14T02:57:33.769Z,0.30
2018-02-14T03:00:01.381Z,0.40
2018-02-14T03:02:28.839Z,0.30
2018-02-14T03:04:56.274Z,0.30
2018-02-14T03:07:23.856Z,0.20
2018-02-14T03:09:51.417Z,0.30
2018-02-14T03:12:18.857Z,0.20
2018-02-14T03:14:46.308Z,0.20
2018-02-14T03:17:13.741Z,0.20
2018-02-14T03:19:41.251Z,0.20
2018-02-14T03:22:09.457Z,0.10
2018-02-14T03:24:37.666Z,0.10
2018-02-14T03:27:05.156Z,0.00
2018-02-14T03:29:32.633Z,0.10
2018-02-14T03:32:00.841Z,0.10
2018-02-14T03:34:28.278Z,0.00
2018-02-14T03:36:55.721Z,0.00
2018-02-14T03:39:23.961Z,0.00
2018-02-14T03:41:51.477Z,-0.10
2018-02-14T03:44:18.971Z,0.00
2018-02-14T03:46:46.421Z,-0.10
2018-02-14T03:49:13.881Z,-0.10
2018-02-14T03:51:41.334Z,-0.10
2018-02-14T03:54:08.780Z,-0.10
2018-02-14T03:56:36.221Z,-0.10
2018-02-14T03:59:03.718Z,-0.10
2018-02-14T04:01:31.161Z,-0.10
2018-02-14T04:03:58.632Z,-0.20
2018-02-14T04:06:26.173Z,-0.10
2018-02-14T04:08:53.637Z,-0.10
2018-02-14T04:11:21.105Z,-0.10
2018-02-14T04:13:48.553Z,-0.10
2018-02-14T04:16:16.006Z,0.00
2018-02-14T04:18:43.461Z,0.00
2018-02-14T04:21:10.970Z,0.00
2018-02-14T04:23:39.178Z,0.00
2018-02-14T04:26:06.653Z,-0.10
2018-02-14T04:28:34.089Z,0.00
2018-02-14T04:31:01.523Z,0.00
2018-02-14T04:33:28.973Z,0.00
2018-02-14T04:35:57.175Z,0.00
2018-02-14T04:38:24.645Z,0.00
2018-02-14T04:40:52.103Z,0.10
2018-02-14T04:43:19.555Z,0.10
2018-02-14T04:45:47.026Z,0.10
2018-02-14T04:48:14.490Z,0.10
2018-02-14T04:50:42.058Z,0.20
2018-02-14T04:53:09.618Z,0.20
2018-02-14T04:55:37.081Z,0.10
2018-02-14T04:58:04.710Z,0.00
2018-02-14T05:00:32.250Z,0.00
2018-02-14T05:02:59.665Z,0.00
2018-02-14T05:05:27.869Z,0.00
2018-02-14T05:07:55.355Z,0.00
2018-02-14T05:10:22.790Z,0.00
2018-02-14T05:12:50.254Z,-0.10
2018-02-14T05:15:17.824Z,-0.20
2018-02-14T05:17:45.297Z,-0.20
2018-02-14T05:20:12.791Z,-0.20
2018-02-14T05:22:40.298Z,-0.20
2018-02-14T05:25:07.759Z,-0.30
2018-02-14T05:27:35.199Z,-0.30
2018-02-14T05:30:02.651Z,-0.40
2018-02-14T05:32:30.094Z,-0.40
2018-02-14T05:34:57.716Z,-0.40
2018-02-14T05:37:25.145Z,-0.50
2018-02-14T05:39:52.584Z,-0.50
2018-02-14T05:42:20.047Z,-0.50
2018-02-14T05:44:47.497Z,-0.40
2018-02-14T05:47:14.933Z,-0.40
2018-02-14T05:49:42.374Z,-0.40
2018-02-14T05:52:09.812Z,-0.50
2018-02-14T05:54:37.249Z,-0.60
2018-02-14T05:57:04.926Z,-0.50
2018-02-14T05:59:32.362Z,-0.50
2018-02-14T06:01:59.804Z,-0.50
2018-02-14T06:04:27.269Z,-0.60
2018-02-14T06:06:54.706Z,-0.60
2018-02-14T06:09:22.141Z,-0.60
2018-02-14T06:11:49.582Z,-0.60
2018-02-14T06:14:17.887Z,-0.60
2018-02-14T06:16:45.366Z,-0.70
2018-02-14T06:19:12.937Z,-0.60
2018-02-14T06:21:40.463Z,-0.60
2018-02-14T06:24:07.902Z,-0.60
2018-02-14T06:26:35.353Z,-0.70
2018-02-14T06:29:02.863Z,-0.80
2018-02-14T06:31:30.322Z,-0.80
2018-02-14T06:33:57.783Z,-0.90
2018-02-14T06:36:25.338Z,-0.90
2018-02-14T06:38:52.884Z,-0.90
2018-02-14T06:41:20.333Z,-0.90
2018-02-14T06:43:47.816Z,-0.90
2018-02-14T06:46:15.372Z,-0.90
2018-02-14T06:48:42.830Z,-0.90
2018-02-14T06:51:10.322Z,-0.90
2018-02-14T06:53:38.510Z,-0.80
2018-02-14T06:56:06.147Z,-0.80
2018-02-14T06:58:33.585Z,-0.70
2018-02-14T07:01:01.041Z,-0.70
2018-02-14T07:03:28.498Z,-0.70
2018-02-14T07:05:56.046Z,-0.70
2018-02-14T07:08:23.617Z,-0.60
2018-02-14T07:10:51.070Z,-0.60
2018-02-14T07:13:18.608Z,-0.60
2018-02-14T07:15:46.165Z,-0.60
2018-02-14T07:18:13.609Z,-0.50
2018-02-14T07:20:41.183Z,-0.40
2018-02-14T07:23:08.657Z,-0.40
2018-02-14T07:25:36.101Z,-0.40
2018-02-14T07:28:03.649Z,-0.40
2018-02-14T07:30:31.093Z,-0.30
2018-02-14T07:32:58.566Z,-0.20
2018-02-14T07:35:26.001Z,-0.20
2018-02-14T07:37:53.472Z,-0.20
2018-02-14T07:40:21.038Z,0.00
2018-02-14T07:42:48.573Z,0.00
2018-02-14T07:45:16.034Z,0.10
2018-02-14T07:47:43.479Z,0.20
2018-02-14T07:50:10.913Z,0.20
2018-02-14T07:52:39.130Z,0.20
2018-02-14T07:55:06.601Z,0.10
2018-02-14T07:57:34.046Z,0.20
2018-02-14T08:00:01.510Z,0.30
2018-02-14T08:02:28.967Z,0.40
2018-02-14T08:04:56.418Z,0.40
2018-02-14T08:07:23.861Z,0.40
2018-02-14T08:09:51.413Z,0.40
2018-02-14T08:12:18.874Z,0.40
2018-02-14T08:14:46.316Z,0.40
2018-02-14T08:17:13.795Z,0.40
2018-02-14T08:19:41.262Z,0.50
2018-02-14T08:22:08.697Z,0.50
2018-02-14T08:24:36.185Z,0.70
2018-02-14T08:27:03.629Z,0.70
2018-02-14T08:29:31.115Z,0.80
2018-02-14T08:31:58.653Z,0.80
2018-02-14T08:34:26.126Z,0.90
2018-02-14T08:36:54.461Z,1.10
2018-02-14T08:39:21.925Z,1.00
2018-02-14T08:41:49.448Z,1.20
2018-02-14T08:44:17.665Z,1.30
2018-02-14T08:46:45.821Z,1.20
2018-02-14T08:49:13.305Z,1.30
2018-02-14T08:51:40.762Z,1.30
2018-02-14T08:54:08.230Z,1.40
2018-02-14T08:56:35.677Z,1.30
2018-02-14T08:59:03.240Z,1.40
2018-02-14T09:01:31.443Z,1.60
2018-02-14T09:03:59.689Z,1.70
2018-02-14T09:06:27.162Z,1.60
2018-02-14T09:08:55.421Z,1.70
2018-02-14T09:11:22.986Z,1.60
2018-02-14T09:13:50.436Z,1.60
2018-02-14T09:16:17.897Z,1.70
2018-02-14T09:18:45.416Z,1.60
2018-02-14T09:21:12.909Z,1.60
2018-02-14T09:23:40.443Z,1.60
2018-02-14T09:26:08.054Z,1.70
2018-02-14T09:28:35.739Z,1.80
2018-02-14T09:31:03.948Z,2.00
2018-02-14T09:33:31.402Z,1.90
2018-02-14T09:35:58.878Z,2.10
2018-02-14T09:38:26.315Z,2.10
2018-02-14T09:40:53.780Z,2.10
2018-02-14T09:43:21.233Z,2.20
2018-02-14T09:45:48.793Z,2.20
2018-02-14T09:48:16.254Z,2.30
2018-02-14T09:50:43.715Z,2.30
2018-02-14T09:53:11.163Z,2.30
2018-02-14T09:55:38.621Z,2.40
2018-02-14T09:58:06.283Z,2.50
2018-02-14T10:00:33.741Z,2.60
2018-02-14T10:03:01.186Z,2.90
2018-02-14T10:05:28.659Z,3.00
2018-02-14T10:07:56.129Z,3.10
2018-02-14T10:10:23.611Z,3.10
2018-02-14T10:12:51.094Z,3.20
2018-02-14T10:15:18.759Z,3.20
2018-02-14T10:17:46.367Z,3.20
2018-02-14T10:20:13.820Z,3.20
2018-02-14T10:22:41.269Z,3.30
2018-02-14T10:25:08.726Z,3.30
2018-02-14T10:27:36.229Z,3.50
2018-02-14T10:30:03.817Z,3.60
2018-02-14T10:32:31.370Z,3.50
2018-02-14T10:34:58.802Z,3.50
2018-02-14T10:37:26.237Z,3.50
2018-02-14T10:39:54.463Z,3.60
2018-02-14T10:42:21.899Z,3.50
2018-02-14T10:44:49.482Z,3.60
2018-02-14T10:47:16.920Z,3.70
2018-02-14T10:49:44.377Z,3.80
2018-02-14T10:52:11.808Z,3.90
2018-02-14T10:54:39.425Z,4.00
2018-02-14T10:57:07.192Z,3.90
2018-02-14T10:59:34.715Z,4.00
2018-02-14T11:02:07.696Z,3.90
2018-02-14T11:04:35.124Z,3.90
2018-02-14T11:07:08.441Z,4.00
2018-02-14T11:09:35.941Z,4.10
2018-02-14T11:12:03.486Z,4.20
2018-02-14T11:14:31.157Z,4.30
2018-02-14T11:16:58.720Z,4.30
2018-02-14T11:19:26.144Z,4.30
2018-02-14T11:21:53.599Z,4.30
2018-02-14T11:24:21.026Z,4.30
2018-02-14T11:26:48.489Z,4.40
2018-02-14T11:29:15.945Z,4.40
2018-02-14T11:31:43.433Z,4.40
2018-02-14T11:34:10.878Z,4.50
2018-02-14T11:36:38.345Z,4.50
2018-02-14T11:39:05.806Z,4.40
2018-02-14T11:41:33.326Z,4.50
2018-02-14T11:44:00.722Z,4.50
2018-02-14T11:46:28.189Z,4.60
2018-02-14T11:48:56.330Z,4.60
2018-02-14T11:51:23.758Z,4.70
2018-02-14T11:53:51.257Z,4.80
2018-02-14T11:56:18.724Z,4.70
2018-02-14T11:58:46.177Z,4.80
2018-02-14T12:01:13.633Z,4.80
2018-02-14T12:03:41.093Z,4.90
2018-02-14T12:06:08.541Z,5.00
2018-02-14T12:08:36.026Z,5.00
2018-02-14T12:11:03.450Z,5.10
2018-02-14T12:13:31.026Z,5.20
2018-02-14T12:15:58.475Z,5.20
2018-02-14T12:18:25.926Z,5.30
2018-02-14T12:20:53.393Z,5.40
2018-02-14T12:23:20.951Z,5.40
2018-02-14T12:25:48.406Z,5.50
2018-02-14T12:28:15.886Z,5.50
2018-02-14T12:30:43.329Z,5.60
2018-02-14T12:33:10.852Z,5.70
2018-02-14T12:35:38.286Z,5.20
2018-02-14T12:38:05.794Z,5.70
2018-02-14T12:40:34.001Z,5.60
2018-02-14T12:43:01.527Z,5.60
2018-02-14T12:45:28.977Z,5.70
2018-02-14T12:47:56.418Z,5.80
2018-02-14T12:50:23.845Z,5.90
2018-02-14T12:52:51.343Z,6.10
2018-02-14T12:55:18.788Z,6.30
2018-02-14T12:57:46.649Z,6.30
2018-02-14T13:00:14.149Z,5.50
2018-02-14T13:02:41.601Z,6.40
2018-02-14T13:05:09.077Z,6.40
2018-02-14T13:07:36.608Z,6.40
2018-02-14T13:10:04.179Z,6.50
2018-02-14T13:12:31.710Z,6.50
2018-02-14T13:14:59.274Z,6.40
2018-02-14T13:17:27.554Z,6.50
2018-02-14T13:19:54.975Z,6.40
2018-02-14T13:22:22.453Z,6.40
2018-02-14T13:24:49.908Z,6.30
2018-02-14T13:27:17.369Z,6.30
2018-02-14T13:29:44.811Z,6.40
2018-02-14T13:32:12.260Z,6.40
2018-02-14T13:34:39.687Z,6.40
2018-02-14T13:37:07.157Z,6.30
2018-02-14T13:39:34.641Z,6.20
2018-02-14T13:42:02.086Z,6.20
2018-02-14T13:44:29.557Z,6.20
2018-02-14T13:46:57.004Z,6.10
2018-02-14T13:49:24.450Z,6.10
2018-02-14T13:51:51.886Z,6.20
2018-02-14T13:54:19.565Z,6.20
2018-02-14T13:56:46.990Z,6.10
2018-02-14T13:59:14.457Z,6.20
2018-02-14T14:01:41.965Z,6.20
2018-02-14T14:04:09.511Z,6.30
2018-02-14T14:06:36.965Z,6.50
2018-02-14T14:09:04.464Z,6.50
2018-02-14T14:11:31.894Z,6.50
2018-02-14T14:13:59.338Z,6.50
2018-02-14T14:16:26.814Z,6.40
2018-02-14T14:18:54.259Z,6.40
2018-02-14T14:21:21.719Z,6.20
2018-02-14T14:23:49.159Z,6.30
2018-02-14T14:26:16.633Z,6.30
2018-02-14T14:28:44.099Z,6.20
2018-02-14T14:31:11.532Z,6.30
2018-02-14T14:33:38.989Z,6.30
2018-02-14T14:36:06.422Z,6.30
2018-02-14T14:38:34.086Z,6.40
2018-02-14T14:41:01.507Z,6.40
2018-02-14T14:43:29.722Z,6.40
2018-02-14T14:45:57.197Z,6.30
2018-02-14T14:48:24.637Z,6.40
2018-02-14T14:50:52.109Z,6.40
2018-02-14T14:53:19.531Z,6.40
2018-02-14T14:55:46.961Z,6.30
2018-02-14T14:58:15.181Z,6.10
2018-02-14T15:00:42.625Z,6.10
2018-02-14T15:03:10.121Z,6.20
2018-02-14T15:05:37.586Z,6.30
2018-02-14T15:08:05.125Z,6.30
2018-02-14T15:10:32.584Z,6.40
2018-02-14T15:13:00.122Z,6.40
2018-02-14T15:15:27.606Z,6.30
2018-02-14T15:17:55.563Z,6.30
2018-02-14T15:20:23.001Z,6.20
2018-02-14T15:22:50.476Z,6.30
2018-02-14T15:25:17.990Z,6.20
2018-02-14T15:27:45.451Z,6.10
2018-02-14T15:30:12.902Z,6.10
2018-02-14T15:32:40.349Z,6.00
2018-02-14T15:35:08.689Z,5.90
2018-02-14T15:37:36.235Z,5.90
2018-02-14T15:40:03.777Z,5.90
2018-02-14T15:42:32.089Z,5.90
2018-02-14T15:44:59.745Z,5.70
2018-02-14T15:47:27.184Z,5.70
2018-02-14T15:49:54.647Z,5.80
2018-02-14T15:52:22.139Z,5.80
2018-02-14T15:54:50.352Z,5.80
2018-02-14T15:57:18.216Z,5.70
2018-02-14T15:59:45.689Z,5.80
2018-02-14T16:02:13.121Z,5.70
2018-02-14T16:04:40.604Z,5.70
2018-02-14T16:07:08.039Z,5.60
2018-02-14T16:09:35.702Z,5.50
2018-02-14T16:12:03.279Z,5.50
2018-02-14T16:14:30.760Z,5.40
2018-02-14T16:16:58.190Z,5.30
2018-02-14T16:19:25.650Z,5.30
2018-02-14T16:21:53.214Z,5.20
2018-02-14T16:24:20.726Z,5.20
2018-02-14T16:26:48.941Z,5.00
2018-02-14T16:29:16.392Z,4.90
2018-02-14T16:31:43.860Z,4.90
2018-02-14T16:34:11.391Z,4.80
2018-02-14T16:36:38.868Z,4.70
2018-02-14T16:39:06.326Z,4.70
2018-02-14T16:41:33.873Z,4.70
2018-02-14T16:44:01.454Z,4.60
2018-02-14T16:46:28.894Z,4.60
2018-02-14T16:48:56.330Z,4.50
2018-02-14T16:51:23.783Z,4.50
2018-02-14T16:53:51.224Z,4.40
2018-02-14T16:56:18.723Z,4.50
2018-02-14T16:58:46.274Z,4.40
2018-02-14T17:01:13.732Z,4.30
2018-02-14T17:03:41.185Z,4.30
2018-02-14T17:06:08.662Z,4.20
2018-02-14T17:08:36.098Z,4.30
2018-02-14T17:11:03.751Z,4.30
2018-02-14T17:13:31.234Z,4.30
2018-02-14T17:15:58.673Z,4.20
2018-02-14T17:18:26.324Z,4.20
2018-02-14T17:20:53.901Z,4.10
2018-02-14T17:23:21.343Z,4.10
2018-02-14T17:25:48.793Z,4.00
2018-02-14T17:28:16.273Z,4.00
2018-02-14T17:30:43.807Z,4.00
2018-02-14T17:33:11.262Z,4.00
2018-02-14T17:35:39.062Z,3.90
2018-02-14T17:38:06.610Z,3.90
2018-02-14T17:40:34.179Z,3.90
2018-02-14T17:43:01.618Z,3.80
2018-02-14T17:45:29.082Z,3.80
2018-02-14T17:47:56.510Z,3.80
2018-02-14T17:50:24.006Z,3.80
2018-02-14T17:52:51.466Z,3.70
2018-02-14T17:55:19.010Z,3.70
2018-02-14T17:57:46.457Z,3.60
2018-02-14T18:00:13.913Z,3.60
2018-02-14T18:02:41.359Z,3.70
2018-02-14T18:05:08.949Z,3.60
2018-02-14T18:07:36.397Z,3.60
2018-02-14T18:10:03.841Z,3.60
2018-02-14T18:12:31.291Z,3.60
2018-02-14T18:14:58.749Z,3.60
2018-02-14T18:17:26.241Z,3.60
2018-02-14T18:19:53.690Z,3.50
2018-02-14T18:22:21.182Z,3.50
2018-02-14T18:24:48.720Z,3.40
2018-02-14T18:27:16.165Z,3.40
2018-02-14T18:29:43.699Z,3.30
2018-02-14T18:32:11.174Z,3.40
2018-02-14T18:34:38.714Z,3.30
2018-02-14T18:37:06.242Z,3.30
2018-02-14T18:39:33.677Z,3.20
2018-02-14T18:42:01.921Z,3.20
2018-02-14T18:44:29.487Z,3.10
2018-02-14T18:46:56.989Z,3.10
2018-02-14T18:49:24.422Z,3.10
2018-02-14T18:51:52.620Z,3.00
2018-02-14T18:54:20.072Z,3.00
2018-02-14T18:56:47.521Z,3.00
2018-02-14T18:59:14.968Z,3.00
2018-02-14T19:01:43.202Z,3.00
2018-02-14T19:04:11.410Z,2.90
2018-02-14T19:06:40.028Z,2.90
2018-02-14T19:09:07.586Z,2.90
2018-02-14T19:11:35.091Z,2.90
2018-02-14T19:14:02.545Z,2.90
2018-02-14T19:16:29.979Z,2.80
2018-02-14T19:18:57.412Z,2.80
2018-02-14T19:21:24.869Z,2.80
2018-02-14T19:23:52.309Z,2.80
2018-02-14T19:26:19.772Z,2.70
2018-02-14T19:28:47.249Z,2.60
2018-02-14T19:31:14.682Z,2.60
2018-02-14T19:33:42.165Z,2.60
2018-02-14T19:36:09.600Z,2.60
2018-02-14T19:38:37.088Z,2.60
2018-02-14T19:41:04.638Z,2.50
2018-02-14T19:43:32.114Z,2.50
2018-02-14T19:45:59.678Z,2.50
2018-02-14T19:48:27.230Z,2.50
2018-02-14T19:50:54.754Z,2.50
2018-02-14T19:53:22.210Z,2.50
2018-02-14T19:55:49.677Z,2.40
2018-02-14T19:58:17.119Z,2.40
2018-02-14T20:00:44.626Z,2.40
2018-02-14T20:03:12.341Z,2.40
2018-02-14T20:05:39.819Z,2.40
2018-02-14T20:08:07.254Z,2.30
2018-02-14T20:10:34.722Z,2.30
2018-02-14T20:13:02.187Z,2.30
2018-02-14T20:15:29.661Z,2.30
2018-02-14T20:17:57.136Z,2.30
2018-02-14T20:20:24.561Z,2.30
2018-02-14T20:22:51.993Z,2.20
2018-02-14T20:25:19.443Z,2.20
2018-02-14T20:27:46.918Z,2.10
2018-02-14T20:30:14.358Z,2.10
2018-02-14T20:32:41.807Z,2.10
2018-02-14T20:35:09.301Z,2.10
2018-02-14T20:37:36.742Z,2.10
2018-02-14T20:40:04.178Z,2.10
2018-02-14T20:42:31.661Z,2.00
2018-02-14T20:44:59.118Z,2.00
2018-02-14T20:47:26.574Z,2.00
2018-02-14T20:49:54.024Z,2.00
2018-02-14T20:52:21.606Z,1.90
2018-02-14T20:54:49.158Z,1.90
2018-02-14T20:57:16.600Z,1.80
2018-02-14T20:59:44.026Z,1.90
2018-02-14T21:02:11.617Z,1.80
2018-02-14T21:04:39.177Z,1.80
2018-02-14T21:07:06.640Z,1.80
2018-02-14T21:09:34.094Z,1.70
2018-02-14T21:12:01.648Z,1.70
2018-02-14T21:14:29.126Z,1.70
2018-02-14T21:16:56.574Z,1.70
2018-02-14T21:19:24.005Z,1.60
2018-02-14T21:21:51.477Z,1.60
2018-02-14T21:24:18.934Z,1.50
2018-02-14T21:26:46.365Z,1.50
2018-02-14T21:29:13.796Z,1.50
2018-02-14T21:31:42.010Z,1.50
2018-02-14T21:34:09.441Z,1.40
2018-02-14T21:36:36.930Z,1.50
2018-02-14T21:39:04.356Z,1.50
2018-02-14T21:41:31.845Z,1.50
2018-02-14T21:43:59.315Z,1.40
2018-02-14T21:46:26.765Z,1.40
2018-02-14T21:48:54.212Z,1.40
2018-02-14T21:51:21.688Z,1.40
2018-02-14T21:53:49.280Z,1.40
2018-02-14T21:56:17.612Z,1.30
2018-02-14T21:58:45.049Z,1.30
2018-02-14T22:01:12.487Z,1.30
2018-02-14T22:03:39.926Z,1.30
2018-02-14T22:06:08.231Z,1.40
2018-02-14T22:08:35.717Z,1.30
2018-02-14T22:11:03.281Z,1.40
2018-02-14T22:13:30.710Z,1.40
2018-02-14T22:15:58.137Z,1.40
2018-02-14T22:18:25.575Z,1.30
2018-02-14T22:20:53.770Z,1.30
2018-02-14T22:23:21.269Z,1.20
2018-02-14T22:25:48.693Z,1.30
2018-02-14T22:28:16.142Z,1.30
2018-02-14T22:30:43.570Z,1.30
2018-02-14T22:33:11.015Z,1.30
2018-02-14T22:35:38.441Z,1.30
2018-02-14T22:38:05.886Z,1.20
2018-02-14T22:40:33.310Z,1.20
2018-02-14T22:43:01.528Z,1.30
2018-02-14T22:45:28.953Z,1.20
2018-02-14T22:47:56.390Z,1.30
2018-02-14T22:50:24.585Z,1.20
2018-02-14T22:52:52.014Z,1.10
2018-02-14T22:55:20.308Z,1.20
2018-02-14T22:57:48.522Z,1.20
2018-02-14T23:00:21.909Z,1.20
2018-02-14T23:02:49.349Z,1.20
2018-02-14T23:05:16.779Z,1.20
2018-02-14T23:07:44.987Z,1.20
2018-02-14T23:10:15.268Z,1.10
2018-02-14T23:12:43.472Z,1.20
2018-02-14T23:15:10.957Z,1.20
2018-02-14T23:17:38.394Z,1.20
2018-02-14T23:20:05.849Z,1.20
2018-02-14T23:22:33.280Z,1.20
2018-02-14T23:25:00.900Z,1.20
2018-02-14T23:27:28.323Z,1.20
2018-02-14T23:29:55.770Z,1.30
2018-02-14T23:32:23.253Z,1.20
2018-02-14T23:34:50.686Z,1.20
2018-02-14T23:37:18.158Z,1.20
2018-02-14T23:39:45.610Z,1.20
2018-02-14T23:42:13.074Z,1.20
2018-02-14T23:44:40.538Z,1.20
2018-02-14T23:47:08.005Z,1.30
2018-02-14T23:49:35.456Z,1.30
2018-02-14T23:52:02.898Z,1.30
2018-02-14T23:54:30.467Z,1.30
2018-02-14T23:56:57.917Z,1.30
2018-02-14T23:59:25.382Z,1.30
